Milos — A8TH8 — position and weather

sailwx.info

Track history (hours):
 
Tides and Currents Weather Stations Pressure Air Temp Water Temp Dewpoint Dewpoint Depression Visibility Wind Speed Wind Dir Waves Ship Positions

Milos

Last reported at 2016-May-29 11:26 UTC. Time now 2016-May-30 18:22 UTC.
Position N 38°48' E 119°06'.

Length 190 m; draft 7.1 m.

Type: Cargo ship. MMSI: 636014358.

Date/timePositionNaut miles runAvg speedWind from/ knotsBaromVisibWave heightAir tempDewpointWater temp
2016-May-29 11:26N 38°48' E 119°06'5914.4
2016-May-29 07:21N 38°41' E 120°20'11212.7
2016-May-28 22:33N 37°48' E 122°26'1212.3
2016-May-28 21:33N 37°41' E 122°38'1111.5
2016-May-28 20:33N 37°32' E 122°48'1110.9
2016-May-28 19:33N 37°22' E 122°53'1211.9
2016-May-28 18:33N 37°10' E 122°53'1312.5
2016-May-28 17:33N 36°58' E 122°53'1313.0
2016-May-28 16:32N 36°44' E 122°53'1212.7
2016-May-28 15:33N 36°32' E 122°55'1512.9
2016-May-28 14:25N 36°17' E 122°56'30610.9
2016-May-27 10:15N 31°16' E 121°51'912.9
2016-May-27 09:32N 31°20' E 121°42'1010.0
2016-May-27 08:34N 31°25' E 121°32'7 7.0
2016-May-27 07:33N 31°29' E 121°26'1111.2
2016-May-27 06:33N 31°37' E 121°16'1313.2
2016-May-27 05:33N 31°45' E 121°04'1211.3
2016-May-27 04:32N 31°49' E 120°51'2 1.3
2016-May-27 03:23N 31°50' E 120°50'1 0.0
2016-May-24 23:33N 31°50' E 120°51'8 8.2
2016-May-24 22:33N 31°47' E 120°60'9 9.3
2016-May-24 21:33N 31°42' E 121°09'10 9.6
2016-May-24 20:33N 31°36' E 121°18'0 0.2
2016-May-24 19:32N 31°36' E 121°18'0 0.0
2016-May-24 18:32N 31°36' E 121°18'0 0.0
2016-May-24 17:32N 31°36' E 121°18'0 0.1
2016-May-24 16:32N 31°36' E 121°18'0 0.2
2016-May-24 15:32N 31°36' E 121°18'0 0.0
2016-May-24 14:32N 31°36' E 121°18'0 0.0
2016-May-24 13:32N 31°36' E 121°18'0 0.0
2016-May-24 12:32N 31°36' E 121°18'0 0.0
2016-May-24 11:32N 31°36' E 121°18'0 0.1
2016-May-24 10:32N 31°36' E 121°18'3 3.3
2016-May-24 09:34N 31°33' E 121°20'1110.6
2016-May-24 08:33N 31°26' E 121°29'8 8.0
2016-May-24 07:33N 31°22' E 121°37'9 9.0
2016-May-24 06:33N 31°18' E 121°47'10 9.9
2016-May-24 05:31N 31°15' E 121°58'57 1.5
2016-May-22 15:11N 30°47' E 122°55'913.3
2016-May-22 14:32N 30°38' E 122°56'1313.0
2016-May-22 13:32N 30°25' E 122°53'1311.0
2016-May-22 12:22N 30°13' E 122°49'1910.5
2016-May-22 10:33N 29°55' E 122°41'1310.2
2016-May-22 09:19N 29°46' E 122°31'810.8
2016-May-22 08:33N 29°43' E 122°23'1312.5
2016-May-22 07:33N 29°51' E 122°12'1313.5
2016-May-22 06:34N 29°58' E 121°59'4 0.7
2016-May-22 01:26N 30°02' E 121°59'0 0.0
2016-May-22 00:20N 30°02' E 121°59'0 0.0
2016-May-21 22:29N 30°02' E 121°59'0 0.0
2016-May-21 20:20N 30°02' E 121°59'0 0.0
2016-May-21 17:08N 30°02' E 121°59'0 0.0
2016-May-21 14:32N 30°02' E 121°59'0 0.0
2016-May-21 13:20N 30°02' E 121°59'0 0.0
2016-May-21 12:26N 30°02' E 121°59'1 0.6
2016-May-21 11:32N 30°02' E 121°59'7 7.2
2016-May-21 10:33N 29°56' E 122°02'8 8.2
2016-May-21 09:33N 29°53' E 122°11'9 8.5
2016-May-21 08:33N 29°47' E 122°17'7 6.6
2016-May-21 07:33N 29°45' E 122°24'10 9.7
2016-May-21 06:33N 29°41' E 122°34'40010.2
2016-May-19 15:28N 23°27' E 119°56'1511.9
2016-May-19 14:13N 23°12' E 119°57'2312.5
2016-May-19 12:24N 22°49' E 119°56'1012.0
2016-May-19 11:33N 22°39' E 119°56'  
Track history (hours):
 
Tides and Currents Weather Stations Pressure Air Temp Water Temp Dewpoint Dewpoint Depression Visibility Wind Speed Wind Dir Waves Ship Positions

Milos

Last reported at 2016-May-29 11:26 UTC. Time now 2016-May-30 18:22 UTC.
Position N 38°48' E 119°06'.

Length 190 m; draft 7.1 m.

Type: Cargo ship. MMSI: 636014358.

Date/timePositionNaut miles runAvg speedWind from/ knotsBaromVisibWave heightAir tempDewpointWater temp
2016-May-29 11:26N 38°48' E 119°06'5914.4
2016-May-29 07:21N 38°41' E 120°20'11212.7
2016-May-28 22:33N 37°48' E 122°26'1212.3
2016-May-28 21:33N 37°41' E 122°38'1111.5
2016-May-28 20:33N 37°32' E 122°48'1110.9
2016-May-28 19:33N 37°22' E 122°53'1211.9
2016-May-28 18:33N 37°10' E 122°53'1312.5
2016-May-28 17:33N 36°58' E 122°53'1313.0
2016-May-28 16:32N 36°44' E 122°53'1212.7
2016-May-28 15:33N 36°32' E 122°55'1512.9
2016-May-28 14:25N 36°17' E 122°56'30610.9
2016-May-27 10:15N 31°16' E 121°51'912.9
2016-May-27 09:32N 31°20' E 121°42'1010.0
2016-May-27 08:34N 31°25' E 121°32'7 7.0
2016-May-27 07:33N 31°29' E 121°26'1111.2
2016-May-27 06:33N 31°37' E 121°16'1313.2
2016-May-27 05:33N 31°45' E 121°04'1211.3
2016-May-27 04:32N 31°49' E 120°51'2 1.3
2016-May-27 03:23N 31°50' E 120°50'1 0.0
2016-May-24 23:33N 31°50' E 120°51'8 8.2
2016-May-24 22:33N 31°47' E 120°60'9 9.3
2016-May-24 21:33N 31°42' E 121°09'10 9.6
2016-May-24 20:33N 31°36' E 121°18'0 0.2
2016-May-24 19:32N 31°36' E 121°18'0 0.0
2016-May-24 18:32N 31°36' E 121°18'0 0.0
2016-May-24 17:32N 31°36' E 121°18'0 0.1
2016-May-24 16:32N 31°36' E 121°18'0 0.2
2016-May-24 15:32N 31°36' E 121°18'0 0.0
2016-May-24 14:32N 31°36' E 121°18'0 0.0
2016-May-24 13:32N 31°36' E 121°18'0 0.0
2016-May-24 12:32N 31°36' E 121°18'0 0.0
2016-May-24 11:32N 31°36' E 121°18'0 0.1
2016-May-24 10:32N 31°36' E 121°18'3 3.3
2016-May-24 09:34N 31°33' E 121°20'1110.6
2016-May-24 08:33N 31°26' E 121°29'8 8.0
2016-May-24 07:33N 31°22' E 121°37'9 9.0
2016-May-24 06:33N 31°18' E 121°47'10 9.9
2016-May-24 05:31N 31°15' E 121°58'57 1.5
2016-May-22 15:11N 30°47' E 122°55'913.3
2016-May-22 14:32N 30°38' E 122°56'1313.0
2016-May-22 13:32N 30°25' E 122°53'1311.0
2016-May-22 12:22N 30°13' E 122°49'1910.5
2016-May-22 10:33N 29°55' E 122°41'1310.2
2016-May-22 09:19N 29°46' E 122°31'810.8
2016-May-22 08:33N 29°43' E 122°23'1312.5
2016-May-22 07:33N 29°51' E 122°12'1313.5
2016-May-22 06:34N 29°58' E 121°59'4 0.7
2016-May-22 01:26N 30°02' E 121°59'0 0.0
2016-May-22 00:20N 30°02' E 121°59'0 0.0
2016-May-21 22:29N 30°02' E 121°59'0 0.0
2016-May-21 20:20N 30°02' E 121°59'0 0.0
2016-May-21 17:08N 30°02' E 121°59'0 0.0
2016-May-21 14:32N 30°02' E 121°59'0 0.0
2016-May-21 13:20N 30°02' E 121°59'0 0.0
2016-May-21 12:26N 30°02' E 121°59'1 0.6
2016-May-21 11:32N 30°02' E 121°59'7 7.2
2016-May-21 10:33N 29°56' E 122°02'8 8.2
2016-May-21 09:33N 29°53' E 122°11'9 8.5
2016-May-21 08:33N 29°47' E 122°17'7 6.6
2016-May-21 07:33N 29°45' E 122°24'10 9.7
2016-May-21 06:33N 29°41' E 122°34'40010.2
2016-May-19 15:28N 23°27' E 119°56'1511.9
2016-May-19 14:13N 23°12' E 119°57'2312.5
2016-May-19 12:24N 22°49' E 119°56'1012.0
2016-May-19 11:33N 22°39' E 119°56'  

Dump ship's entire track history